Time;durP1;ratioP1;P1;durP2;ratioP2;P2;SDS_P1;SDS_P2;PMS_P1;PMS_P2;Temp;Humidity;BMP_temperature;BMP_pressure;BME280_temperature;BME280_humidity;BME280_pressure;Samples;Min_cycle;Max_cycle;Signal;HPM_P1;HPM_P2
2022/07/07 00:01:48;;;;;;;4.83;1.97;;;;;;;19.03;47.09;98049.44;5085767;28;20205;-71
2022/07/07 00:04:14;;;;;;;3.33;1.97;;;;;;;19.10;47.16;98056.66;5079488;28;20218;-71
2022/07/07 00:06:39;;;;;;;3.47;2.20;;;;;;;19.06;47.16;98060.69;5080684;28;20189;-72
2022/07/07 00:09:05;;;;;;;3.47;1.90;;;;;;;19.06;47.30;98050.88;5074798;28;20179;-72
2022/07/07 00:11:31;;;;;;;2.57;1.93;;;;;;;19.09;47.31;98058.50;5087628;28;20174;-71
2022/07/07 00:13:57;;;;;;;4.67;2.10;;;;;;;19.06;47.58;98050.88;5081370;28;20413;-71
2022/07/07 00:16:22;;;;;;;4.77;2.27;;;;;;;19.09;47.39;98050.53;5080800;28;20879;-71
2022/07/07 00:18:48;;;;;;;2.63;2.10;;;;;;;19.01;47.73;98045.31;5076786;28;20270;-70
2022/07/07 00:21:14;;;;;;;5.00;2.07;;;;;;;18.93;47.96;98050.69;5072788;28;20183;-72
2022/07/07 00:23:39;;;;;;;4.10;2.00;;;;;;;19.00;47.73;98051.66;5088669;28;20193;-71
2022/07/07 00:26:05;;;;;;;4.40;2.37;;;;;;;19.00;47.51;98054.31;5080520;28;20225;-70
2022/07/07 00:28:31;;;;;;;4.30;2.60;;;;;;;18.94;47.60;98052.38;5089753;28;20177;-71
2022/07/07 00:30:56;;;;;;;3.50;2.30;;;;;;;18.94;47.51;98053.22;5079276;28;20798;-71
2022/07/07 00:33:22;;;;;;;7.43;3.20;;;;;;;18.91;47.40;98058.84;5083833;28;20440;-72
2022/07/07 00:35:48;;;;;;;2.80;2.20;;;;;;;18.89;47.86;98055.56;5078879;28;20205;-71
2022/07/07 00:38:13;;;;;;;2.27;2.07;;;;;;;18.90;47.63;98045.78;5081497;28;20191;-72
2022/07/07 00:40:39;;;;;;;7.00;2.50;;;;;;;18.84;48.03;98048.16;5084163;28;20182;-73
2022/07/07 00:43:04;;;;;;;2.50;2.30;;;;;;;18.88;48.15;98046.78;5090184;28;20236;-71
2022/07/07 00:45:30;;;;;;;3.63;2.17;;;;;;;18.88;48.21;98044.13;5088777;28;20280;-72
2022/07/07 00:47:56;;;;;;;4.37;2.17;;;;;;;18.86;48.27;98051.44;5084924;28;20181;-73
2022/07/07 00:50:22;;;;;;;5.07;2.33;;;;;;;18.86;48.13;98043.47;5070241;28;20178;-72
2022/07/07 00:52:47;;;;;;;7.00;2.77;;;;;;;18.90;48.26;98041.28;5087425;28;20945;-72
2022/07/07 00:55:13;;;;;;;4.70;2.17;;;;;;;18.89;48.30;98042.28;5089484;28;20220;-72
2022/07/07 00:57:39;;;;;;;8.07;2.20;;;;;;;18.92;48.41;98043.72;5086665;28;20227;-72
2022/07/07 01:00:08;;;;;;;3.60;2.10;;;;;;;18.86;48.53;98034.69;5082865;28;20185;-73
2022/07/07 01:02:33;;;;;;;3.60;2.23;;;;;;;18.86;48.82;98032.03;5088679;28;20653;-71
2022/07/07 01:05:00;;;;;;;3.93;2.30;;;;;;;18.86;48.84;98030.19;5085366;28;20443;-72
2022/07/07 01:07:27;;;;;;;5.67;2.20;;;;;;;18.85;49.01;98025.91;5088849;28;20185;-72
2022/07/07 01:09:54;;;;;;;3.90;2.40;;;;;;;18.84;49.05;98026.06;5087062;28;20918;-72
2022/07/07 01:12:20;;;;;;;3.23;2.40;;;;;;;18.88;48.80;98020.22;5088371;28;20432;-72
2022/07/07 01:14:45;;;;;;;3.13;2.13;;;;;;;18.92;48.64;98015.34;5087542;28;20972;-72
2022/07/07 01:17:11;;;;;;;3.23;2.30;;;;;;;18.85;48.93;98015.28;5081635;28;20186;-71
2022/07/07 01:19:36;;;;;;;3.53;2.40;;;;;;;18.83;49.17;98021.78;5074128;28;20185;-71
2022/07/07 01:22:12;;;;;;;2.33;2.13;;;;;;;18.67;49.50;98026.28;5084873;28;20244;-72
2022/07/07 01:24:37;;;;;;;2.37;2.13;;;;;;;18.73;49.52;98022.06;5075284;28;20213;-71
2022/07/07 01:27:07;;;;;;;4.13;2.40;;;;;;;18.69;49.50;98015.47;5084576;28;20470;-73
2022/07/07 01:29:39;;;;;;;2.30;2.10;;;;;;;18.67;49.22;98010.34;5090296;28;20193;-72
2022/07/07 01:32:05;;;;;;;3.20;2.20;;;;;;;18.70;49.14;98015.31;5084038;28;20515;-72
2022/07/07 01:34:31;;;;;;;2.83;2.50;;;;;;;18.75;48.91;98012.09;5082985;28;20534;-72
2022/07/07 01:36:57;;;;;;;3.33;2.37;;;;;;;18.80;48.69;98007.03;5087908;28;20535;-72
2022/07/07 01:39:22;;;;;;;3.97;2.20;;;;;;;18.80;48.93;98004.38;5079833;28;20432;-73
2022/07/07 01:41:48;;;;;;;4.23;2.40;;;;;;;18.79;49.12;97997.41;5085335;28;20691;-72
2022/07/07 01:44:13;;;;;;;5.80;2.30;;;;;;;18.74;49.23;97997.16;5088281;28;20274;-72
2022/07/07 01:46:39;;;;;;;2.40;2.20;;;;;;;18.78;49.20;97992.31;5083614;28;20198;-73
2022/07/07 01:49:04;;;;;;;3.50;2.20;;;;;;;18.81;49.24;97994.59;5071592;28;20201;-72
2022/07/07 01:51:30;;;;;;;5.63;2.77;;;;;;;18.84;48.93;97994.19;5075230;28;20728;-72
2022/07/07 01:53:55;;;;;;;3.50;2.50;;;;;;;18.78;48.75;98001.06;5075534;28;20183;-73
2022/07/07 01:56:21;;;;;;;3.70;2.10;;;;;;;18.77;48.95;97988.84;5087507;28;20710;-73
2022/07/07 01:58:46;;;;;;;2.30;2.10;;;;;;;18.76;49.50;97981.03;5073252;28;20193;-72
2022/07/07 02:01:11;;;;;;;2.90;2.30;;;;;;;18.83;49.52;97988.06;5081488;28;20186;-71
2022/07/07 02:03:37;;;;;;;2.83;2.00;;;;;;;18.84;49.74;97989.72;5087335;28;20205;-71
2022/07/07 02:06:03;;;;;;;2.70;2.17;;;;;;;18.81;49.51;97990.09;5080325;28;20676;-71
2022/07/07 02:08:28;;;;;;;2.47;2.27;;;;;;;18.80;49.63;97988.44;5088077;28;20276;-72
2022/07/07 02:11:12;;;;;;;3.33;1.90;;;;;;;18.79;49.87;97984.13;5085639;28;20760;-71
2022/07/07 02:13:43;;;;;;;2.50;2.30;;;;;;;18.84;49.84;97984.41;5089258;28;20174;-71
2022/07/07 02:16:09;;;;;;;3.70;2.20;;;;;;;18.81;49.83;97982.13;5085718;28;21178;-71
2022/07/07 02:18:36;;;;;;;2.87;2.57;;;;;;;18.77;49.94;97982.69;5073989;28;20461;-72
2022/07/07 02:21:03;;;;;;;4.63;2.23;;;;;;;18.84;50.17;97984.41;5078093;28;20435;-71
2022/07/07 02:23:29;;;;;;;3.80;2.63;;;;;;;18.83;49.92;97985.41;5081365;28;20465;-71
2022/07/07 02:25:54;;;;;;;2.40;2.20;;;;;;;18.85;49.73;97990.53;5087426;28;20534;-71
2022/07/07 02:28:20;;;;;;;3.53;2.37;;;;;;;18.84;50.03;97995.03;5083299;28;20193;-71
2022/07/07 02:30:46;;;;;;;7.73;2.70;;;;;;;18.86;49.97;97993.03;5083329;28;20249;-72
2022/07/07 02:33:12;;;;;;;2.67;2.30;;;;;;;18.85;49.93;97990.53;5085819;28;20193;-72
2022/07/07 02:35:38;;;;;;;3.23;2.20;;;;;;;18.75;50.37;97990.84;5075643;28;20452;-71
2022/07/07 02:38:03;;;;;;;7.77;2.63;;;;;;;18.75;50.33;97990.84;5085496;28;20193;-71
2022/07/07 02:40:29;;;;;;;5.93;2.40;;;;;;;18.76;50.22;97983.69;5076636;28;20209;-71
2022/07/07 02:42:54;;;;;;;2.60;2.10;;;;;;;18.78;50.49;97982.50;5088302;28;20221;-72
2022/07/07 02:45:20;;;;;;;4.97;2.53;;;;;;;18.80;50.69;97987.63;5079015;28;20216;-71
2022/07/07 02:47:45;;;;;;;3.87;2.67;;;;;;;18.82;50.81;97975.81;5082854;28;20189;-71
2022/07/07 02:50:10;;;;;;;6.80;2.80;;;;;;;18.82;50.76;97982.97;5078131;28;20185;-71
2022/07/07 02:52:36;;;;;;;5.53;2.27;;;;;;;18.75;50.60;97977.56;5075304;28;20215;-71
2022/07/07 02:55:01;;;;;;;6.23;2.80;;;;;;;18.77;51.06;97977.38;5087345;28;20201;-72
2022/07/07 02:57:27;;;;;;;3.53;2.60;;;;;;;18.74;51.03;97978.59;5077734;28;20183;-73
2022/07/07 02:59:52;;;;;;;4.33;2.77;;;;;;;18.74;50.73;97978.59;5079564;28;20177;-72
2022/07/07 03:02:18;;;;;;;5.23;2.50;;;;;;;18.73;50.90;97976.94;5085258;28;20692;-72
2022/07/07 03:04:43;;;;;;;5.67;2.63;;;;;;;18.79;50.64;97984.13;5083627;28;20212;-72
2022/07/07 03:07:09;;;;;;;5.60;2.20;;;;;;;18.80;49.86;97985.78;5086536;28;20235;-71
2022/07/07 03:09:34;;;;;;;4.80;2.50;;;;;;;18.80;50.00;97977.00;5084715;28;20220;-70
2022/07/07 03:12:00;;;;;;;4.20;2.33;;;;;;;18.83;49.88;97977.47;5088107;28;20640;-71
2022/07/07 03:14:25;;;;;;;6.07;2.50;;;;;;;18.83;49.96;97972.16;5083076;28;20204;-72
2022/07/07 03:16:51;;;;;;;4.50;2.40;;;;;;;18.83;50.27;97972.16;5083488;28;20193;-71
2022/07/07 03:19:17;;;;;;;3.90;2.40;;;;;;;18.83;50.25;97969.50;5069455;28;20555;-73
2022/07/07 03:21:42;;;;;;;8.53;2.40;;;;;;;18.86;50.17;97965.63;5082244;28;20201;-72
2022/07/07 03:24:07;;;;;;;3.97;2.23;;;;;;;18.86;50.10;97966.47;5083375;28;20202;-71
2022/07/07 03:26:33;;;;;;;10.00;2.43;;;;;;;18.82;50.37;97957.22;5084140;28;20584;-72
2022/07/07 03:28:58;;;;;;;5.20;2.47;;;;;;;18.79;50.85;97954.13;5082564;28;20186;-71
2022/07/07 03:31:24;;;;;;;3.37;3.07;;;;;;;18.80;51.06;97953.91;5085735;28;20554;-71
2022/07/07 03:33:49;;;;;;;3.53;2.20;;;;;;;18.78;51.08;97950.63;5055473;28;20195;-72
2022/07/07 03:36:15;;;;;;;2.50;2.27;;;;;;;18.81;51.07;97947.59;5083356;28;20229;-71
2022/07/07 03:38:41;;;;;;;5.60;2.80;;;;;;;18.84;50.89;97952.56;5063559;28;20194;-73
2022/07/07 03:41:06;;;;;;;5.30;2.37;;;;;;;18.83;50.78;97953.56;5064953;28;20205;-71
2022/07/07 03:43:32;;;;;;;5.77;2.57;;;;;;;18.86;50.44;97952.34;5069304;28;20202;-73
2022/07/07 03:45:57;;;;;;;2.83;2.20;;;;;;;18.84;50.49;97941.09;5069879;28;20233;-71
2022/07/07 03:48:23;;;;;;;4.80;2.40;;;;;;;18.86;50.34;97939.91;5068748;28;20540;-71
2022/07/07 03:50:48;;;;;;;4.70;2.60;;;;;;;18.84;50.61;97936.63;5070007;28;20194;-72
2022/07/07 03:53:14;;;;;;;2.60;2.40;;;;;;;18.90;50.71;97936.88;5069290;28;20182;-73
2022/07/07 03:55:39;;;;;;;2.90;2.60;;;;;;;18.86;50.36;97934.59;5070006;28;20194;-71
2022/07/07 03:58:05;;;;;;;2.17;1.97;;;;;;;18.94;49.39;97935.50;5061415;28;20184;-73
2022/07/07 04:00:30;;;;;;;4.97;2.20;;;;;;;18.97;48.50;97937.81;5068436;28;20217;-71
2022/07/07 04:02:56;;;;;;;1.90;1.80;;;;;;;18.92;48.10;97930.38;5065353;28;20182;-71
2022/07/07 04:05:21;;;;;;;2.23;1.90;;;;;;;18.99;47.99;97933.13;5068137;28;20673;-71
2022/07/07 04:07:47;;;;;;;3.97;2.40;;;;;;;19.08;47.71;97931.19;5073364;28;20266;-71
2022/07/07 04:10:12;;;;;;;3.50;2.10;;;;;;;19.12;47.64;97933.25;5083243;28;20250;-71
2022/07/07 04:12:38;;;;;;;3.83;2.10;;;;;;;19.15;48.21;97934.72;5080339;28;20190;-72
2022/07/07 04:15:04;;;;;;;2.93;2.00;;;;;;;19.18;47.23;97942.31;5064292;28;20286;-70
2022/07/07 04:17:30;;;;;;;5.73;2.10;;;;;;;19.19;46.19;97947.41;5056318;28;20177;-71
2022/07/07 04:19:55;;;;;;;2.90;2.30;;;;;;;19.21;45.87;97939.28;5071892;28;20443;-71
2022/07/07 04:22:21;;;;;;;1.90;1.80;;;;;;;19.24;45.37;97946.84;5061398;28;20214;-72
2022/07/07 04:24:46;;;;;;;4.10;2.20;;;;;;;19.29;44.72;97947.13;5072178;28;20587;-70
2022/07/07 04:27:12;;;;;;;6.97;2.63;;;;;;;19.28;44.80;97944.66;5072727;28;20193;-71
2022/07/07 04:29:37;;;;;;;4.23;2.10;;;;;;;19.30;44.93;97946.09;5082061;28;20598;-71
2022/07/07 04:32:04;;;;;;;4.00;2.00;;;;;;;19.29;44.74;97944.47;5076497;28;20218;-73
2022/07/07 04:34:29;;;;;;;6.73;1.90;;;;;;;19.37;44.85;97940.84;5066828;28;20213;-71
2022/07/07 04:36:55;;;;;;;2.80;2.17;;;;;;;19.42;45.13;97938.41;5075886;28;21006;-70
2022/07/07 04:39:21;;;;;;;3.03;2.10;;;;;;;19.42;44.71;97942.94;5074429;28;20269;-70
2022/07/07 04:41:46;;;;;;;5.10;1.80;;;;;;;19.44;44.59;97928.44;5074017;28;20210;-70
2022/07/07 04:44:11;;;;;;;2.37;2.17;;;;;;;19.52;44.69;97927.47;5072742;28;20581;-73
2022/07/07 04:46:37;;;;;;;2.33;2.00;;;;;;;19.56;44.55;97931.41;5079718;28;20215;-71
2022/07/07 04:49:03;;;;;;;5.33;2.20;;;;;;;19.59;44.38;97922.22;5020645;28;20194;-74
2022/07/07 04:51:28;;;;;;;4.23;1.90;;;;;;;19.64;44.49;97930.44;5072062;28;20789;-71
2022/07/07 04:53:54;;;;;;;5.23;2.10;;;;;;;19.67;44.28;97932.69;5070978;28;20257;-72
2022/07/07 04:56:20;;;;;;;4.60;2.20;;;;;;;19.71;44.30;97933.97;5079802;28;20259;-73
2022/07/07 04:58:45;;;;;;;4.23;2.63;;;;;;;19.71;44.36;97930.50;5063638;28;20526;-72
2022/07/07 05:01:11;;;;;;;3.20;2.30;;;;;;;19.69;44.20;97938.66;5035611;28;20517;-73
2022/07/07 05:03:36;;;;;;;4.30;2.07;;;;;;;19.68;44.04;97926.34;5020554;28;20301;-72
2022/07/07 05:06:02;;;;;;;2.33;2.13;;;;;;;19.72;44.02;97926.81;5045985;28;20692;-72
2022/07/07 05:08:29;;;;;;;2.20;2.00;;;;;;;19.77;44.12;97921.72;5056335;28;20640;-72
2022/07/07 05:10:55;;;;;;;7.07;2.20;;;;;;;19.80;44.22;97926.66;5031197;28;20436;-74
2022/07/07 05:13:21;;;;;;;5.80;2.40;;;;;;;19.86;43.83;97923.25;5051505;28;20486;-71
2022/07/07 05:15:48;;;;;;;4.00;2.20;;;;;;;19.92;43.77;97924.31;5041041;28;20263;-72
2022/07/07 05:18:15;;;;;;;5.43;1.93;;;;;;;19.99;43.71;97921.69;5041514;28;20215;-71
2022/07/07 05:20:40;;;;;;;3.30;2.20;;;;;;;20.06;43.43;97918.03;5038029;28;20787;-73
2022/07/07 05:23:06;;;;;;;2.50;1.70;;;;;;;20.06;43.14;97911.91;5043978;28;20463;-74
2022/07/07 05:25:31;;;;;;;4.57;1.83;;;;;;;20.06;42.90;97920.72;5048520;28;20194;-72
2022/07/07 05:27:57;;;;;;;2.83;1.90;;;;;;;20.03;43.13;97918.47;5029818;28;20699;-74
2022/07/07 05:30:23;;;;;;;7.30;1.90;;;;;;;20.02;43.71;97922.13;5038414;28;20706;-73
2022/07/07 05:32:48;;;;;;;4.00;2.30;;;;;;;20.09;43.87;97932.81;5053552;28;20193;-71
2022/07/07 05:35:14;;;;;;;7.03;2.13;;;;;;;20.14;43.30;97927.72;5066061;28;20237;-73
2022/07/07 05:37:42;;;;;;;3.40;1.90;;;;;;;20.16;43.15;97924.88;5072257;28;20188;-72
2022/07/07 05:40:08;;;;;;;2.10;1.90;;;;;;;20.21;42.88;97925.09;5056466;28;20190;-72
2022/07/07 05:42:34;;;;;;;9.17;2.00;;;;;;;20.26;42.69;97920.81;5071069;28;20429;-70
2022/07/07 05:44:59;;;;;;;3.00;1.70;;;;;;;20.38;42.70;97920.25;5065819;28;20518;-71
2022/07/07 05:47:25;;;;;;;2.80;1.70;;;;;;;20.48;42.76;97914.56;5063417;28;20293;-71
2022/07/07 05:49:51;;;;;;;7.53;2.37;;;;;;;20.60;42.51;97917.50;5063222;28;20274;-76
2022/07/07 05:52:16;;;;;;;5.07;2.70;;;;;;;20.71;42.59;97907.06;5061344;28;20225;-72
2022/07/07 05:54:41;;;;;;;4.53;2.83;;;;;;;20.85;42.15;97904.47;5067037;28;20198;-72
2022/07/07 05:57:07;;;;;;;8.10;2.10;;;;;;;21.00;41.65;97899.78;5065330;28;20191;-72
2022/07/07 05:59:33;;;;;;;7.50;2.60;;;;;;;21.15;41.44;97898.78;5071654;28;20265;-72
2022/07/07 06:01:59;;;;;;;5.60;2.43;;;;;;;21.27;40.97;97907.00;5054369;28;20417;-71
2022/07/07 06:04:26;;;;;;;2.43;2.23;;;;;;;21.43;40.93;97901.25;5057627;28;20296;-71
2022/07/07 06:06:52;;;;;;;3.70;1.93;;;;;;;21.53;39.98;97911.53;5054680;28;20229;-71
2022/07/07 06:09:18;;;;;;;5.27;1.90;;;;;;;21.67;39.77;97916.88;5057931;28;20811;-72
2022/07/07 06:11:44;;;;;;;5.60;1.90;;;;;;;21.71;40.06;97916.25;5054676;28;20433;-72
2022/07/07 06:14:09;;;;;;;2.80;1.90;;;;;;;21.82;39.74;97913.97;5059711;28;20178;-72
2022/07/07 06:16:41;;;;;;;3.73;2.10;;;;;;;21.85;39.61;97911.72;5057381;28;20468;-72
2022/07/07 06:19:10;;;;;;;3.47;1.97;;;;;;;21.99;39.60;97915.16;5066361;28;20217;-70
2022/07/07 06:21:37;;;;;;;3.30;1.77;;;;;;;22.04;39.25;97918.03;5068706;28;20466;-71
2022/07/07 06:24:03;;;;;;;3.50;1.90;;;;;;;22.00;39.08;97918.66;5054216;28;20489;-73
2022/07/07 06:26:29;;;;;;;3.30;2.00;;;;;;;21.92;39.67;97919.72;5054165;28;20433;-71
2022/07/07 06:28:55;;;;;;;3.33;1.70;;;;;;;21.93;39.86;97911.47;5053202;28;20429;-72
2022/07/07 06:31:20;;;;;;;4.60;2.00;;;;;;;22.06;40.04;97901.81;5069701;28;20213;-73
2022/07/07 06:33:46;;;;;;;6.03;2.13;;;;;;;22.18;39.78;97889.44;5057536;28;20293;-70
2022/07/07 06:36:11;;;;;;;6.70;2.10;;;;;;;22.21;39.30;97891.69;5057561;28;20221;-72
2022/07/07 06:38:37;;;;;;;4.30;1.70;;;;;;;22.32;39.15;97898.25;5065438;28;20195;-72
2022/07/07 06:41:02;;;;;;;3.03;1.97;;;;;;;22.43;38.67;97893.31;5064563;28;20186;-72
2022/07/07 06:43:28;;;;;;;13.73;2.17;;;;;;;22.36;38.76;97882.63;5056838;28;20263;-70
2022/07/07 06:45:53;;;;;;;4.17;2.00;;;;;;;22.53;39.03;97891.81;5054103;28;20226;-71
2022/07/07 06:48:19;;;;;;;5.63;2.10;;;;;;;22.58;38.46;97885.00;5055604;28;20233;-71
2022/07/07 06:50:44;;;;;;;5.33;1.80;;;;;;;22.73;39.13;97893.56;5062686;28;20186;-72
2022/07/07 06:53:10;;;;;;;6.67;2.10;;;;;;;22.73;38.37;97887.41;5060358;28;20176;-72
2022/07/07 06:55:36;;;;;;;6.77;2.00;;;;;;;22.81;38.31;97893.31;5061180;28;20202;-71
2022/07/07 06:58:05;;;;;;;2.97;2.30;;;;;;;22.91;38.61;97892.84;5059472;28;20653;-71
2022/07/07 07:00:30;;;;;;;10.40;2.27;;;;;;;22.99;38.21;97897.94;5054637;28;20183;-71
2022/07/07 07:02:56;;;;;;;3.03;2.17;;;;;;;23.03;37.81;97898.31;5053098;28;20555;-72
2022/07/07 07:05:22;;;;;;;11.07;3.43;;;;;;;23.13;37.98;97893.31;5068466;28;20242;-71
2022/07/07 07:07:47;;;;;;;6.07;2.10;;;;;;;23.25;38.04;97884.63;5070654;28;20248;-69
2022/07/07 07:10:13;;;;;;;3.60;1.67;;;;;;;23.32;38.16;97896.06;5069303;28;20193;-70
2022/07/07 07:12:38;;;;;;;7.80;2.40;;;;;;;23.36;38.00;97901.81;5069382;28;20179;-71
2022/07/07 07:15:05;;;;;;;3.63;1.83;;;;;;;23.35;37.85;97903.66;5070506;28;20237;-71
2022/07/07 07:17:31;;;;;;;5.07;1.90;;;;;;;23.36;37.91;97901.81;5070562;28;20214;-73
2022/07/07 07:19:56;;;;;;;4.50;2.10;;;;;;;23.39;38.30;97906.72;5064474;28;20471;-70
2022/07/07 07:22:22;;;;;;;4.80;2.00;;;;;;;23.39;38.64;97912.06;5051652;28;20190;-71
2022/07/07 07:24:47;;;;;;;2.90;1.90;;;;;;;23.37;38.44;97911.50;5051373;28;20243;-71
2022/07/07 07:27:13;;;;;;;5.20;2.40;;;;;;;23.34;38.25;97910.03;5051880;28;20217;-70
2022/07/07 07:29:38;;;;;;;5.40;1.90;;;;;;;23.33;38.30;97905.72;5054131;28;20175;-70
2022/07/07 07:32:05;;;;;;;7.40;2.03;;;;;;;23.36;38.70;97907.97;5054421;28;20186;-71
2022/07/07 07:34:30;;;;;;;2.23;1.60;;;;;;;23.47;38.87;97909.13;5053859;28;20293;-71
2022/07/07 07:36:55;;;;;;;3.10;1.77;;;;;;;23.55;38.65;97910.72;5053184;28;20521;-70
2022/07/07 07:39:21;;;;;;;2.53;1.80;;;;;;;23.54;38.82;97909.09;5054135;28;20600;-71
2022/07/07 07:41:46;;;;;;;5.07;2.20;;;;;;;23.60;38.08;97919.72;5056424;28;20187;-71
2022/07/07 07:44:12;;;;;;;3.00;2.00;;;;;;;23.61;37.96;97921.38;5061400;28;20624;-71
2022/07/07 07:46:38;;;;;;;2.83;1.70;;;;;;;23.75;37.86;97916.69;5059791;28;20725;-71
2022/07/07 07:49:06;;;;;;;5.83;2.10;;;;;;;23.87;38.33;97924.00;5062003;28;20187;-71
2022/07/07 07:51:32;;;;;;;6.93;1.80;;;;;;;23.98;38.23;97927.84;5058510;28;20210;-70
2022/07/07 07:53:58;;;;;;;7.13;1.80;;;;;;;24.04;38.24;97934.97;5058256;28;20487;-70
2022/07/07 07:56:23;;;;;;;2.43;1.53;;;;;;;24.07;38.74;97932.66;5058996;28;20445;-71
2022/07/07 07:58:49;;;;;;;1.70;1.57;;;;;;;24.07;38.75;97939.91;5062036;28;20178;-71
2022/07/07 08:01:14;;;;;;;3.50;2.10;;;;;;;24.00;38.23;97944.50;5072061;28;20180;-70
2022/07/07 08:03:41;;;;;;;3.27;1.97;;;;;;;23.90;38.59;97942.31;5072574;28;20197;-72
2022/07/07 08:06:06;;;;;;;2.90;1.80;;;;;;;23.80;38.90;97945.47;5070623;28;20702;-72
2022/07/07 08:08:32;;;;;;;9.77;2.20;;;;;;;23.69;38.78;97944.31;5065703;28;20416;-72
2022/07/07 08:10:58;;;;;;;3.40;2.07;;;;;;;23.65;39.34;97948.50;5074391;28;20182;-74
2022/07/07 08:13:23;;;;;;;2.80;1.90;;;;;;;23.61;39.25;97947.28;5075446;28;20672;-73
2022/07/07 08:15:49;;;;;;;8.23;2.50;;;;;;;23.50;39.55;97946.16;5072938;28;20202;-74
2022/07/07 08:18:14;;;;;;;2.93;2.20;;;;;;;23.38;39.64;97948.69;5072887;28;20182;-73
2022/07/07 08:20:40;;;;;;;4.30;2.20;;;;;;;23.32;39.82;97949.56;5074558;28;20231;-74
2022/07/07 08:23:05;;;;;;;5.37;2.33;;;;;;;23.20;40.25;97935.25;5069295;28;20182;-73
2022/07/07 08:25:33;;;;;;;2.30;2.03;;;;;;;23.15;40.27;97923.34;5074473;28;20206;-72
2022/07/07 08:27:59;;;;;;;3.00;2.13;;;;;;;23.07;40.39;97920.91;5074337;28;20585;-72
2022/07/07 08:30:24;;;;;;;5.70;2.20;;;;;;;23.01;40.76;97906.53;5074130;28;20427;-72
2022/07/07 08:32:50;;;;;;;2.80;1.90;;;;;;;23.02;40.96;97907.38;5074172;28;20221;-71
2022/07/07 08:35:16;;;;;;;5.63;2.27;;;;;;;22.99;41.10;97907.81;5072116;28;20565;-73
2022/07/07 08:37:42;;;;;;;14.60;9.80;;;;;;;23.01;41.11;97913.75;5072883;28;20224;-72
2022/07/07 08:40:07;;;;;;;4.30;3.07;;;;;;;23.08;41.38;97919.06;5066466;28;20187;-73
2022/07/07 08:42:33;;;;;;;3.07;2.83;;;;;;;23.13;41.23;97920.06;5073803;28;20194;-73
2022/07/07 08:44:58;;;;;;;3.63;2.20;;;;;;;23.21;41.11;97927.03;5064545;28;20670;-72
2022/07/07 08:47:25;;;;;;;8.83;3.10;;;;;;;23.31;41.09;97931.91;5066911;28;20185;-73
2022/07/07 08:49:51;;;;;;;4.50;2.13;;;;;;;23.37;41.13;97920.31;5068530;28;20568;-74
2022/07/07 08:52:17;;;;;;;3.90;2.30;;;;;;;23.47;41.21;97920.66;5069454;28;20471;-73
2022/07/07 08:54:42;;;;;;;7.33;2.50;;;;;;;23.63;41.49;97931.84;5068185;28;20471;-72
2022/07/07 08:57:08;;;;;;;2.90;2.70;;;;;;;23.78;41.57;97920.78;5063480;28;20248;-72
2022/07/07 08:59:34;;;;;;;2.93;2.50;;;;;;;24.09;41.07;97905.69;5072640;28;20545;-73
2022/07/07 09:02:00;;;;;;;8.17;3.00;;;;;;;24.35;40.85;97907.25;5073188;28;20239;-74
2022/07/07 09:04:26;;;;;;;5.30;2.63;;;;;;;24.62;39.75;97898.06;5072495;28;20627;-73
2022/07/07 09:06:57;;;;;;;4.27;2.60;;;;;;;24.94;39.99;97898.69;5073462;28;20436;-73
2022/07/07 09:09:40;;;;;;;6.40;3.00;;;;;;;25.15;39.05;97893.84;5071293;28;20919;-73
2022/07/07 09:12:07;;;;;;;3.50;2.43;;;;;;;25.35;38.81;97898.06;5081195;28;20415;-73
2022/07/07 09:14:40;;;;;;;7.33;2.57;;;;;;;25.50;38.45;97911.88;5073801;28;20440;-73
2022/07/07 09:17:19;;;;;;;7.00;2.60;;;;;;;25.81;38.53;97892.97;5072243;28;20436;-74
2022/07/07 09:19:46;;;;;;;7.47;2.40;;;;;;;26.05;38.02;97905.31;5072448;28;20440;-74
2022/07/07 09:22:12;;;;;;;6.97;2.47;;;;;;;25.97;37.88;97915.59;5072260;28;20454;-73
2022/07/07 09:24:56;;;;;;;5.33;2.50;;;;;;;25.74;38.36;97906.50;5072227;28;20518;-73
2022/07/07 09:27:22;;;;;;;3.20;2.37;;;;;;;25.64;38.89;97919.69;5071440;28;20194;-72
2022/07/07 09:29:47;;;;;;;7.67;2.17;;;;;;;25.28;39.75;97928.50;5074525;28;20809;-71
2022/07/07 09:32:13;;;;;;;12.30;2.80;;;;;;;25.09;39.79;97929.59;5073750;28;20660;-75
2022/07/07 09:34:38;;;;;;;2.23;1.90;;;;;;;24.91;40.17;97927.78;5035957;28;1057571;-73
2022/07/07 09:39:52;;;;;;;6.70;1.80;;;;;;;24.67;41.72;97936.53;5073254;28;20232;-72
2022/07/07 09:42:47;;;;;;;1.83;1.73;;;;;;;24.48;42.42;97941.09;5073748;28;20417;-72
2022/07/07 09:45:13;;;;;;;9.00;2.20;;;;;;;24.23;42.86;97931.28;5071952;28;20857;-72
2022/07/07 09:47:38;;;;;;;2.50;1.60;;;;;;;24.06;43.35;97927.56;5072489;28;20417;-72
2022/07/07 09:50:15;;;;;;;2.70;1.70;;;;;;;23.78;43.46;97937.69;5072599;28;20247;-72
2022/07/07 09:52:45;;;;;;;2.53;2.00;;;;;;;23.72;43.78;97941.22;5068757;28;20205;-73
2022/07/07 09:55:11;;;;;;;3.00;1.90;;;;;;;23.62;43.62;97954.28;5073500;28;20444;-75
2022/07/07 09:57:38;;;;;;;2.70;2.00;;;;;;;23.49;43.55;97947.19;5077347;28;20486;-72
2022/07/07 10:00:05;;;;;;;1.80;1.70;;;;;;;23.41;44.07;97958.13;5072686;28;20772;-74
2022/07/07 10:02:31;;;;;;;2.90;1.83;;;;;;;23.34;44.44;97944.00;5071519;28;20428;-73
2022/07/07 10:04:59;;;;;;;1.70;1.60;;;;;;;23.35;44.56;97945.66;5072066;28;21044;-72
2022/07/07 10:07:26;;;;;;;1.80;1.70;;;;;;;23.38;44.79;97951.38;5068373;28;20182;-74
2022/07/07 10:09:54;;;;;;;3.10;2.80;;;;;;;23.45;44.93;97954.00;5072552;28;20431;-73
2022/07/07 10:12:21;;;;;;;5.30;4.03;;;;;;;23.52;44.82;97959.31;5085129;28;20423;-74
2022/07/07 10:14:48;;;;;;;13.77;2.60;;;;;;;23.60;44.83;97956.34;5072594;28;20981;-74
2022/07/07 10:17:16;;;;;;;3.60;2.20;;;;;;;23.64;44.81;97960.22;5054299;28;20482;-73
2022/07/07 10:19:43;;;;;;;5.00;2.30;;;;;;;23.73;44.42;97958.91;5073050;28;20508;-73
2022/07/07 10:22:10;;;;;;;7.90;3.13;;;;;;;23.83;43.64;97962.94;5070713;28;21005;-75
2022/07/07 10:24:38;;;;;;;3.20;2.67;;;;;;;24.03;43.31;97968.97;5071168;28;20981;-74
2022/07/07 10:27:04;;;;;;;6.67;3.77;;;;;;;24.21;42.97;97967.34;5071852;28;20561;-73
2022/07/07 10:29:41;;;;;;;3.20;2.90;;;;;;;24.35;42.47;97965.34;5069497;28;20450;-73
2022/07/07 10:32:12;;;;;;;2.50;2.30;;;;;;;24.50;42.60;97964.97;5064475;28;20189;-73
2022/07/07 10:34:43;;;;;;;3.43;2.97;;;;;;;24.56;42.25;97958.72;5071833;28;20456;-72
2022/07/07 10:37:10;;;;;;;6.57;3.70;;;;;;;24.64;42.17;97958.41;5071845;28;20942;-73
2022/07/07 10:39:40;;;;;;;8.70;4.10;;;;;;;24.65;42.25;97948.50;5071114;28;20427;-73
2022/07/07 10:42:15;;;;;;;6.00;2.43;;;;;;;24.54;41.50;97955.47;5068804;28;20511;-71
2022/07/07 10:44:43;;;;;;;2.77;2.50;;;;;;;24.48;41.59;97961.69;5077025;28;20543;-73
2022/07/07 10:47:12;;;;;;;4.83;2.70;;;;;;;24.38;41.62;97959.56;5067392;28;20421;-73
2022/07/07 10:49:42;;;;;;;9.33;2.60;;;;;;;24.35;41.82;97962.69;5072141;28;20420;-73
2022/07/07 10:52:12;;;;;;;4.00;3.53;;;;;;;24.36;42.50;97956.28;5064364;28;20418;-73
2022/07/07 10:54:43;;;;;;;5.97;4.13;;;;;;;24.40;42.76;97954.78;5055161;28;20590;-74
2022/07/07 10:57:09;;;;;;;3.40;3.10;;;;;;;24.39;42.66;97964.69;5066053;28;20471;-73
2022/07/07 11:00:00;;;;;;;4.53;3.53;;;;;;;24.37;42.71;97961.41;5063521;28;20457;-74
2022/07/07 11:02:29;;;;;;;4.27;2.30;;;;;;;24.32;42.58;97963.13;5070101;28;20429;-73
2022/07/07 11:04:56;;;;;;;4.03;3.67;;;;;;;24.22;42.82;97963.63;5071547;28;20526;-73
2022/07/07 11:07:24;;;;;;;3.77;2.20;;;;;;;24.17;43.01;97960.81;5071109;28;20433;-74
2022/07/07 11:10:05;;;;;;;2.33;2.13;;;;;;;24.12;43.03;97968.69;5071540;28;20556;-73
2022/07/07 11:12:41;;;;;;;3.13;1.83;;;;;;;24.05;43.83;97977.63;5066581;28;20428;-74
2022/07/07 11:15:33;;;;;;;6.17;2.20;;;;;;;23.97;45.02;97972.53;5070991;28;20658;-73
2022/07/07 11:18:00;;;;;;;3.63;2.17;;;;;;;23.86;45.49;97975.88;5068942;28;20436;-73
2022/07/07 11:20:29;;;;;;;4.50;2.77;;;;;;;23.77;46.26;97970.81;5071547;28;20432;-73
2022/07/07 11:23:11;;;;;;;4.67;2.67;;;;;;;23.68;47.03;97969.47;5078047;28;20435;-73
2022/07/07 11:25:38;;;;;;;10.03;2.47;;;;;;;23.69;47.34;97970.28;5071382;28;20492;-72
2022/07/07 11:28:05;;;;;;;4.37;3.10;;;;;;;23.73;46.84;97979.50;5071013;28;20427;-74
2022/07/07 11:30:31;;;;;;;2.90;2.57;;;;;;;23.76;46.56;97977.22;5070247;28;20432;-73
2022/07/07 11:32:58;;;;;;;2.97;2.60;;;;;;;23.84;46.36;97972.59;5071178;28;20531;-73
2022/07/07 11:35:28;;;;;;;2.60;2.20;;;;;;;23.85;45.97;97975.09;5073059;28;20439;-74